sensor_id;sensor_type;location;lat;lon;timestamp;temperature;humidity
33741;DHT22;20065;48.380;10.892;2023-05-27T00:00:26;17.10;99.90
33741;DHT22;20065;48.380;10.892;2023-05-27T00:03:12;17.00;99.90
33741;DHT22;20065;48.380;10.892;2023-05-27T00:06:00;16.90;99.90
33741;DHT22;20065;48.380;10.892;2023-05-27T00:08:46;16.90;99.90
33741;DHT22;20065;48.380;10.892;2023-05-27T00:11:33;16.90;99.90
33741;DHT22;20065;48.380;10.892;2023-05-27T00:14:19;16.90;99.90
33741;DHT22;20065;48.380;10.892;2023-05-27T00:17:06;16.90;99.90
33741;DHT22;20065;48.380;10.892;2023-05-27T00:19:54;16.80;99.90
33741;DHT22;20065;48.380;10.892;2023-05-27T00:22:41;16.80;99.90
33741;DHT22;20065;48.380;10.892;2023-05-27T00:25:27;16.80;99.90
33741;DHT22;20065;48.380;10.892;2023-05-27T00:28:13;16.80;99.90
33741;DHT22;20065;48.380;10.892;2023-05-27T00:30:59;16.80;99.90
33741;DHT22;20065;48.380;10.892;2023-05-27T00:33:46;16.70;99.90
33741;DHT22;20065;48.380;10.892;2023-05-27T00:36:32;16.70;99.90
33741;DHT22;20065;48.380;10.892;2023-05-27T00:39:18;16.70;99.90
33741;DHT22;20065;48.380;10.892;2023-05-27T00:42:04;16.60;99.90
33741;DHT22;20065;48.380;10.892;2023-05-27T00:44:52;16.60;99.90
33741;DHT22;20065;48.380;10.892;2023-05-27T00:47:38;16.60;99.90
33741;DHT22;20065;48.380;10.892;2023-05-27T00:50:24;16.60;99.90
33741;DHT22;20065;48.380;10.892;2023-05-27T00:53:12;16.60;99.90
33741;DHT22;20065;48.380;10.892;2023-05-27T00:55:59;16.60;99.90
33741;DHT22;20065;48.380;10.892;2023-05-27T00:58:46;16.50;99.90
33741;DHT22;20065;48.380;10.892;2023-05-27T01:01:33;16.50;99.90
33741;DHT22;20065;48.380;10.892;2023-05-27T01:04:22;16.50;99.90
33741;DHT22;20065;48.380;10.892;2023-05-27T01:07:26;16.50;99.90
33741;DHT22;20065;48.380;10.892;2023-05-27T01:10:41;16.40;99.90
33741;DHT22;20065;48.380;10.892;2023-05-27T01:13:36;16.40;99.90
33741;DHT22;20065;48.380;10.892;2023-05-27T01:16:27;16.40;99.90
33741;DHT22;20065;48.380;10.892;2023-05-27T01:19:39;16.40;99.90
33741;DHT22;20065;48.380;10.892;2023-05-27T01:22:31;16.40;99.90
33741;DHT22;20065;48.380;10.892;2023-05-27T01:25:18;16.40;99.90
33741;DHT22;20065;48.380;10.892;2023-05-27T01:28:10;16.40;99.90
33741;DHT22;20065;48.380;10.892;2023-05-27T01:31:06;16.30;99.90
33741;DHT22;20065;48.380;10.892;2023-05-27T01:34:08;16.30;99.90
33741;DHT22;20065;48.380;10.892;2023-05-27T01:37:00;16.30;99.90
33741;DHT22;20065;48.380;10.892;2023-05-27T01:39:49;16.30;99.90
33741;DHT22;20065;48.380;10.892;2023-05-27T01:42:38;16.20;99.90
33741;DHT22;20065;48.380;10.892;2023-05-27T01:45:25;16.30;99.90
33741;DHT22;20065;48.380;10.892;2023-05-27T01:48:12;16.20;99.90
33741;DHT22;20065;48.380;10.892;2023-05-27T01:50:58;16.20;99.90
33741;DHT22;20065;48.380;10.892;2023-05-27T01:53:46;16.20;99.90
33741;DHT22;20065;48.380;10.892;2023-05-27T01:56:32;16.20;99.90
33741;DHT22;20065;48.380;10.892;2023-05-27T01:59:18;16.10;99.90
33741;DHT22;20065;48.380;10.892;2023-05-27T02:02:05;16.10;99.90
33741;DHT22;20065;48.380;10.892;2023-05-27T02:04:51;16.20;99.90
33741;DHT22;20065;48.380;10.892;2023-05-27T02:07:37;16.10;99.90
33741;DHT22;20065;48.380;10.892;2023-05-27T02:10:24;16.10;99.90
33741;DHT22;20065;48.380;10.892;2023-05-27T02:13:10;16.10;99.90
33741;DHT22;20065;48.380;10.892;2023-05-27T02:15:56;16.10;99.90
33741;DHT22;20065;48.380;10.892;2023-05-27T02:18:43;16.10;99.90
33741;DHT22;20065;48.380;10.892;2023-05-27T02:21:29;16.10;99.90
33741;DHT22;20065;48.380;10.892;2023-05-27T02:24:15;16.10;99.90
33741;DHT22;20065;48.380;10.892;2023-05-27T02:27:01;16.10;99.90
33741;DHT22;20065;48.380;10.892;2023-05-27T02:29:48;16.10;99.90
33741;DHT22;20065;48.380;10.892;2023-05-27T02:32:34;16.00;99.90
33741;DHT22;20065;48.380;10.892;2023-05-27T02:35:21;16.00;99.90
33741;DHT22;20065;48.380;10.892;2023-05-27T02:38:07;16.00;99.90
33741;DHT22;20065;48.380;10.892;2023-05-27T02:40:53;16.00;99.90
33741;DHT22;20065;48.380;10.892;2023-05-27T02:43:40;16.00;99.90
33741;DHT22;20065;48.380;10.892;2023-05-27T02:46:26;15.90;99.90
33741;DHT22;20065;48.380;10.892;2023-05-27T02:49:12;16.00;99.90
33741;DHT22;20065;48.380;10.892;2023-05-27T02:51:58;15.90;99.90
33741;DHT22;20065;48.380;10.892;2023-05-27T02:54:45;15.90;99.90
33741;DHT22;20065;48.380;10.892;2023-05-27T02:57:31;15.60;99.90
33741;DHT22;20065;48.380;10.892;2023-05-27T03:00:17;15.70;99.90
33741;DHT22;20065;48.380;10.892;2023-05-27T03:03:03;15.80;99.90
33741;DHT22;20065;48.380;10.892;2023-05-27T03:05:53;15.70;99.90
33741;DHT22;20065;48.380;10.892;2023-05-27T03:08:39;15.60;99.90
33741;DHT22;20065;48.380;10.892;2023-05-27T03:11:26;15.50;99.90
33741;DHT22;20065;48.380;10.892;2023-05-27T03:14:12;15.60;99.90
33741;DHT22;20065;48.380;10.892;2023-05-27T03:16:58;15.60;99.90
33741;DHT22;20065;48.380;10.892;2023-05-27T03:19:44;15.60;99.90
33741;DHT22;20065;48.380;10.892;2023-05-27T03:22:31;15.60;99.90
33741;DHT22;20065;48.380;10.892;2023-05-27T03:25:17;15.50;99.90
33741;DHT22;20065;48.380;10.892;2023-05-27T03:28:03;15.40;99.90
33741;DHT22;20065;48.380;10.892;2023-05-27T03:30:51;15.40;99.90
33741;DHT22;20065;48.380;10.892;2023-05-27T03:34:05;15.40;99.90
33741;DHT22;20065;48.380;10.892;2023-05-27T03:36:51;15.40;99.90
33741;DHT22;20065;48.380;10.892;2023-05-27T03:39:41;15.30;99.90
33741;DHT22;20065;48.380;10.892;2023-05-27T03:42:27;15.30;99.90
33741;DHT22;20065;48.380;10.892;2023-05-27T03:45:17;15.20;99.90
33741;DHT22;20065;48.380;10.892;2023-05-27T03:48:04;15.10;99.90
33741;DHT22;20065;48.380;10.892;2023-05-27T03:50:53;15.10;99.90
33741;DHT22;20065;48.380;10.892;2023-05-27T03:53:39;15.00;99.90
33741;DHT22;20065;48.380;10.892;2023-05-27T03:56:26;15.00;99.90
33741;DHT22;20065;48.380;10.892;2023-05-27T03:59:12;15.00;99.90
33741;DHT22;20065;48.380;10.892;2023-05-27T04:01:59;14.90;99.90
33741;DHT22;20065;48.380;10.892;2023-05-27T04:04:45;15.00;99.90
33741;DHT22;20065;48.380;10.892;2023-05-27T04:07:32;15.00;99.90
33741;DHT22;20065;48.380;10.892;2023-05-27T04:10:18;15.00;99.90
33741;DHT22;20065;48.380;10.892;2023-05-27T04:13:07;15.00;99.90
33741;DHT22;20065;48.380;10.892;2023-05-27T04:15:53;15.00;99.90
33741;DHT22;20065;48.380;10.892;2023-05-27T04:18:40;15.00;99.90
33741;DHT22;20065;48.380;10.892;2023-05-27T04:21:27;15.00;99.90
33741;DHT22;20065;48.380;10.892;2023-05-27T04:24:15;15.00;99.90
33741;DHT22;20065;48.380;10.892;2023-05-27T04:27:04;15.00;99.90
33741;DHT22;20065;48.380;10.892;2023-05-27T04:29:50;15.00;99.90
33741;DHT22;20065;48.380;10.892;2023-05-27T04:32:37;15.00;99.90
33741;DHT22;20065;48.380;10.892;2023-05-27T04:35:23;15.10;99.90
33741;DHT22;20065;48.380;10.892;2023-05-27T04:38:12;15.10;99.90
33741;DHT22;20065;48.380;10.892;2023-05-27T04:41:20;15.10;99.90
33741;DHT22;20065;48.380;10.892;2023-05-27T04:44:31;15.10;99.90
33741;DHT22;20065;48.380;10.892;2023-05-27T04:47:19;15.20;99.90
33741;DHT22;20065;48.380;10.892;2023-05-27T04:50:08;15.20;99.90
33741;DHT22;20065;48.380;10.892;2023-05-27T04:52:54;15.20;99.90
33741;DHT22;20065;48.380;10.892;2023-05-27T04:55:40;15.30;99.90
33741;DHT22;20065;48.380;10.892;2023-05-27T04:58:28;15.30;99.90
33741;DHT22;20065;48.380;10.892;2023-05-27T05:01:14;15.30;99.90
33741;DHT22;20065;48.380;10.892;2023-05-27T05:04:10;15.30;99.90
33741;DHT22;20065;48.380;10.892;2023-05-27T05:07:03;15.40;99.90
33741;DHT22;20065;48.380;10.892;2023-05-27T05:09:51;15.40;99.90
33741;DHT22;20065;48.380;10.892;2023-05-27T05:12:44;15.30;99.90
33741;DHT22;20065;48.380;10.892;2023-05-27T05:15:30;15.30;99.90
33741;DHT22;20065;48.380;10.892;2023-05-27T05:18:17;15.30;99.90
33741;DHT22;20065;48.380;10.892;2023-05-27T05:21:04;15.30;99.90
33741;DHT22;20065;48.380;10.892;2023-05-27T05:23:58;15.30;99.90
33741;DHT22;20065;48.380;10.892;2023-05-27T05:26:44;15.20;99.90
33741;DHT22;20065;48.380;10.892;2023-05-27T05:29:31;15.30;99.90
33741;DHT22;20065;48.380;10.892;2023-05-27T05:32:18;15.40;99.90
33741;DHT22;20065;48.380;10.892;2023-05-27T05:35:04;15.40;99.90
33741;DHT22;20065;48.380;10.892;2023-05-27T05:37:51;15.30;99.90
33741;DHT22;20065;48.380;10.892;2023-05-27T05:40:38;15.40;99.90
33741;DHT22;20065;48.380;10.892;2023-05-27T05:43:33;15.40;99.90
33741;DHT22;20065;48.380;10.892;2023-05-27T05:46:19;15.50;99.90
33741;DHT22;20065;48.380;10.892;2023-05-27T05:49:05;15.60;99.90
33741;DHT22;20065;48.380;10.892;2023-05-27T05:52:02;15.60;99.90
33741;DHT22;20065;48.380;10.892;2023-05-27T05:54:48;15.70;99.90
33741;DHT22;20065;48.380;10.892;2023-05-27T05:57:35;15.60;99.90
33741;DHT22;20065;48.380;10.892;2023-05-27T06:00:22;15.70;99.90
33741;DHT22;20065;48.380;10.892;2023-05-27T06:03:13;15.70;99.90
33741;DHT22;20065;48.380;10.892;2023-05-27T06:06:07;15.80;99.90
33741;DHT22;20065;48.380;10.892;2023-05-27T06:09:02;15.70;99.90
33741;DHT22;20065;48.380;10.892;2023-05-27T06:11:48;15.70;99.90
33741;DHT22;20065;48.380;10.892;2023-05-27T06:14:34;15.80;99.90
33741;DHT22;20065;48.380;10.892;2023-05-27T06:17:21;15.80;99.90
33741;DHT22;20065;48.380;10.892;2023-05-27T06:20:07;15.80;99.90
33741;DHT22;20065;48.380;10.892;2023-05-27T06:22:54;15.90;99.90
33741;DHT22;20065;48.380;10.892;2023-05-27T06:25:59;15.90;99.90
33741;DHT22;20065;48.380;10.892;2023-05-27T06:28:48;15.90;99.90
33741;DHT22;20065;48.380;10.892;2023-05-27T06:31:36;15.90;99.90
33741;DHT22;20065;48.380;10.892;2023-05-27T06:34:22;16.00;99.90
33741;DHT22;20065;48.380;10.892;2023-05-27T06:37:08;15.90;99.90
33741;DHT22;20065;48.380;10.892;2023-05-27T06:39:55;15.90;99.90
33741;DHT22;20065;48.380;10.892;2023-05-27T06:42:42;16.00;99.90
33741;DHT22;20065;48.380;10.892;2023-05-27T06:45:58;16.00;99.90
33741;DHT22;20065;48.380;10.892;2023-05-27T06:48:57;16.00;99.90
33741;DHT22;20065;48.380;10.892;2023-05-27T06:51:43;16.10;99.90
33741;DHT22;20065;48.380;10.892;2023-05-27T06:54:29;16.20;99.90
33741;DHT22;20065;48.380;10.892;2023-05-27T06:57:34;16.20;99.90
33741;DHT22;20065;48.380;10.892;2023-05-27T07:00:28;16.20;99.90
33741;DHT22;20065;48.380;10.892;2023-05-27T07:03:37;16.30;99.90
33741;DHT22;20065;48.380;10.892;2023-05-27T07:06:25;16.30;99.90
33741;DHT22;20065;48.380;10.892;2023-05-27T07:09:13;16.40;99.90
33741;DHT22;20065;48.380;10.892;2023-05-27T07:12:01;16.40;99.90
33741;DHT22;20065;48.380;10.892;2023-05-27T07:15:07;16.50;99.90
33741;DHT22;20065;48.380;10.892;2023-05-27T07:17:54;16.50;99.90
33741;DHT22;20065;48.380;10.892;2023-05-27T07:20:40;16.60;99.90
33741;DHT22;20065;48.380;10.892;2023-05-27T07:23:29;16.70;99.90
33741;DHT22;20065;48.380;10.892;2023-05-27T07:26:34;16.70;99.90
33741;DHT22;20065;48.380;10.892;2023-05-27T07:29:21;16.70;99.90
33741;DHT22;20065;48.380;10.892;2023-05-27T07:32:14;16.80;99.90
33741;DHT22;20065;48.380;10.892;2023-05-27T07:35:00;16.90;99.90
33741;DHT22;20065;48.380;10.892;2023-05-27T07:37:46;16.90;99.90
33741;DHT22;20065;48.380;10.892;2023-05-27T07:40:33;16.90;99.90
33741;DHT22;20065;48.380;10.892;2023-05-27T07:43:19;17.00;99.90
33741;DHT22;20065;48.380;10.892;2023-05-27T07:46:06;17.00;99.90
33741;DHT22;20065;48.380;10.892;2023-05-27T07:48:55;17.10;99.90
33741;DHT22;20065;48.380;10.892;2023-05-27T07:51:42;17.10;99.90
33741;DHT22;20065;48.380;10.892;2023-05-27T07:54:30;17.10;99.90
33741;DHT22;20065;48.380;10.892;2023-05-27T07:57:16;17.10;99.90
33741;DHT22;20065;48.380;10.892;2023-05-27T08:00:04;17.20;99.90
33741;DHT22;20065;48.380;10.892;2023-05-27T08:03:11;17.30;99.90
33741;DHT22;20065;48.380;10.892;2023-05-27T08:06:33;17.30;99.90
33741;DHT22;20065;48.380;10.892;2023-05-27T08:09:45;17.30;99.90
33741;DHT22;20065;48.380;10.892;2023-05-27T08:12:53;17.40;99.90
33741;DHT22;20065;48.380;10.892;2023-05-27T08:16:00;17.40;99.90
33741;DHT22;20065;48.380;10.892;2023-05-27T08:18:57;17.40;99.90
33741;DHT22;20065;48.380;10.892;2023-05-27T08:21:52;17.50;99.90
33741;DHT22;20065;48.380;10.892;2023-05-27T08:25:01;17.50;99.90
33741;DHT22;20065;48.380;10.892;2023-05-27T08:28:06;17.60;99.90
33741;DHT22;20065;48.380;10.892;2023-05-27T08:31:07;17.60;99.90
33741;DHT22;20065;48.380;10.892;2023-05-27T08:34:08;17.60;99.90
33741;DHT22;20065;48.380;10.892;2023-05-27T08:36:56;17.70;99.90
33741;DHT22;20065;48.380;10.892;2023-05-27T08:39:44;17.70;99.90
33741;DHT22;20065;48.380;10.892;2023-05-27T08:42:42;17.80;99.90
33741;DHT22;20065;48.380;10.892;2023-05-27T08:45:30;17.80;99.90
33741;DHT22;20065;48.380;10.892;2023-05-27T08:48:17;17.80;99.90
33741;DHT22;20065;48.380;10.892;2023-05-27T08:51:05;17.90;99.90
33741;DHT22;20065;48.380;10.892;2023-05-27T08:53:52;17.90;99.90
33741;DHT22;20065;48.380;10.892;2023-05-27T08:56:43;18.20;99.90
33741;DHT22;20065;48.380;10.892;2023-05-27T08:59:34;18.10;99.90
33741;DHT22;20065;48.380;10.892;2023-05-27T09:02:22;18.10;99.90
33741;DHT22;20065;48.380;10.892;2023-05-27T09:05:09;18.20;99.90
33741;DHT22;20065;48.380;10.892;2023-05-27T09:07:56;18.20;99.90
33741;DHT22;20065;48.380;10.892;2023-05-27T09:10:42;18.20;99.90
33741;DHT22;20065;48.380;10.892;2023-05-27T09:13:29;18.30;99.90
33741;DHT22;20065;48.380;10.892;2023-05-27T09:16:20;18.30;99.90
33741;DHT22;20065;48.380;10.892;2023-05-27T09:19:15;18.40;99.90
33741;DHT22;20065;48.380;10.892;2023-05-27T09:22:01;18.50;99.90
33741;DHT22;20065;48.380;10.892;2023-05-27T09:24:48;18.50;99.90
33741;DHT22;20065;48.380;10.892;2023-05-27T09:27:34;18.60;99.90
33741;DHT22;20065;48.380;10.892;2023-05-27T09:30:24;18.60;99.90
33741;DHT22;20065;48.380;10.892;2023-05-27T09:33:12;18.70;99.90
33741;DHT22;20065;48.380;10.892;2023-05-27T09:36:00;18.70;99.90
33741;DHT22;20065;48.380;10.892;2023-05-27T09:38:47;18.80;99.90
33741;DHT22;20065;48.380;10.892;2023-05-27T09:41:35;18.80;99.90
33741;DHT22;20065;48.380;10.892;2023-05-27T09:44:28;18.90;99.90
33741;DHT22;20065;48.380;10.892;2023-05-27T09:47:16;19.00;99.90
33741;DHT22;20065;48.380;10.892;2023-05-27T09:50:12;19.10;99.90
33741;DHT22;20065;48.380;10.892;2023-05-27T09:53:00;19.10;99.90
33741;DHT22;20065;48.380;10.892;2023-05-27T09:55:50;19.20;99.90
33741;DHT22;20065;48.380;10.892;2023-05-27T09:58:38;19.30;99.90
33741;DHT22;20065;48.380;10.892;2023-05-27T10:01:29;19.30;99.90
33741;DHT22;20065;48.380;10.892;2023-05-27T10:04:15;19.40;99.90
33741;DHT22;20065;48.380;10.892;2023-05-27T10:07:04;19.40;99.90
33741;DHT22;20065;48.380;10.892;2023-05-27T10:09:52;19.50;99.90
33741;DHT22;20065;48.380;10.892;2023-05-27T10:12:40;19.60;99.90
33741;DHT22;20065;48.380;10.892;2023-05-27T10:15:31;19.70;99.90
33741;DHT22;20065;48.380;10.892;2023-05-27T10:18:31;19.70;99.90
33741;DHT22;20065;48.380;10.892;2023-05-27T10:21:21;19.80;99.90
33741;DHT22;20065;48.380;10.892;2023-05-27T10:24:10;19.90;99.90
33741;DHT22;20065;48.380;10.892;2023-05-27T10:27:00;20.00;99.90
33741;DHT22;20065;48.380;10.892;2023-05-27T10:29:57;20.10;99.90
33741;DHT22;20065;48.380;10.892;2023-05-27T10:32:47;20.10;99.90
33741;DHT22;20065;48.380;10.892;2023-05-27T10:35:42;20.00;99.90
33741;DHT22;20065;48.380;10.892;2023-05-27T10:38:28;20.20;99.90
33741;DHT22;20065;48.380;10.892;2023-05-27T10:41:14;20.30;99.90
33741;DHT22;20065;48.380;10.892;2023-05-27T10:44:01;20.30;99.90
33741;DHT22;20065;48.380;10.892;2023-05-27T10:46:47;20.30;99.90
33741;DHT22;20065;48.380;10.892;2023-05-27T10:49:35;20.40;99.90
33741;DHT22;20065;48.380;10.892;2023-05-27T10:52:24;20.30;99.90
33741;DHT22;20065;48.380;10.892;2023-05-27T10:55:13;20.30;99.90
33741;DHT22;20065;48.380;10.892;2023-05-27T10:58:00;20.30;99.90
33741;DHT22;20065;48.380;10.892;2023-05-27T11:00:51;20.30;99.90
33741;DHT22;20065;48.380;10.892;2023-05-27T11:03:45;20.50;99.90
33741;DHT22;20065;48.380;10.892;2023-05-27T11:06:31;20.60;99.90
33741;DHT22;20065;48.380;10.892;2023-05-27T11:09:19;20.70;99.90
33741;DHT22;20065;48.380;10.892;2023-05-27T11:12:07;20.70;99.90
33741;DHT22;20065;48.380;10.892;2023-05-27T11:14:55;20.80;99.90
33741;DHT22;20065;48.380;10.892;2023-05-27T11:17:41;20.80;99.90
33741;DHT22;20065;48.380;10.892;2023-05-27T11:20:37;20.80;99.90
33741;DHT22;20065;48.380;10.892;2023-05-27T11:23:37;20.80;99.90
33741;DHT22;20065;48.380;10.892;2023-05-27T11:26:25;20.70;99.90
33741;DHT22;20065;48.380;10.892;2023-05-27T11:29:13;20.80;99.90
33741;DHT22;20065;48.380;10.892;2023-05-27T11:31:59;20.90;99.90
33741;DHT22;20065;48.380;10.892;2023-05-27T11:34:46;20.90;99.90
33741;DHT22;20065;48.380;10.892;2023-05-27T11:37:36;21.10;99.90
33741;DHT22;20065;48.380;10.892;2023-05-27T11:40:23;21.10;99.70
33741;DHT22;20065;48.380;10.892;2023-05-27T11:43:09;21.20;99.90
33741;DHT22;20065;48.380;10.892;2023-05-27T11:46:03;21.30;99.90
33741;DHT22;20065;48.380;10.892;2023-05-27T11:48:49;21.30;99.90
33741;DHT22;20065;48.380;10.892;2023-05-27T11:51:59;21.30;99.90
33741;DHT22;20065;48.380;10.892;2023-05-27T11:54:49;21.30;99.90
33741;DHT22;20065;48.380;10.892;2023-05-27T11:57:38;21.30;99.90
33741;DHT22;20065;48.380;10.892;2023-05-27T12:00:24;21.30;99.90
33741;DHT22;20065;48.380;10.892;2023-05-27T12:03:10;21.30;99.90
33741;DHT22;20065;48.380;10.892;2023-05-27T12:05:59;21.30;99.90
33741;DHT22;20065;48.380;10.892;2023-05-27T12:08:45;21.40;99.90
33741;DHT22;20065;48.380;10.892;2023-05-27T12:11:55;21.30;99.50
33741;DHT22;20065;48.380;10.892;2023-05-27T12:14:41;21.40;99.90
33741;DHT22;20065;48.380;10.892;2023-05-27T12:17:27;21.50;99.90
33741;DHT22;20065;48.380;10.892;2023-05-27T12:20:13;21.50;99.90
33741;DHT22;20065;48.380;10.892;2023-05-27T12:23:00;21.50;99.90
33741;DHT22;20065;48.380;10.892;2023-05-27T12:25:46;21.50;98.60
33741;DHT22;20065;48.380;10.892;2023-05-27T12:28:32;21.60;99.70
33741;DHT22;20065;48.380;10.892;2023-05-27T12:31:18;21.60;99.90
33741;DHT22;20065;48.380;10.892;2023-05-27T12:34:05;21.60;99.90
33741;DHT22;20065;48.380;10.892;2023-05-27T12:36:51;21.60;99.90
33741;DHT22;20065;48.380;10.892;2023-05-27T12:39:37;21.60;99.90
33741;DHT22;20065;48.380;10.892;2023-05-27T12:42:23;21.60;99.30
33741;DHT22;20065;48.380;10.892;2023-05-27T12:45:10;21.60;99.90
33741;DHT22;20065;48.380;10.892;2023-05-27T12:47:57;21.60;99.90
33741;DHT22;20065;48.380;10.892;2023-05-27T12:50:44;21.60;99.30
33741;DHT22;20065;48.380;10.892;2023-05-27T12:53:30;21.60;99.70
33741;DHT22;20065;48.380;10.892;2023-05-27T12:56:16;21.60;99.50
33741;DHT22;20065;48.380;10.892;2023-05-27T12:59:02;21.80;98.60
33741;DHT22;20065;48.380;10.892;2023-05-27T13:01:49;21.80;98.00
33741;DHT22;20065;48.380;10.892;2023-05-27T13:04:35;21.80;97.90
33741;DHT22;20065;48.380;10.892;2023-05-27T13:07:22;21.80;97.30
33741;DHT22;20065;48.380;10.892;2023-05-27T13:10:12;21.80;98.40
33741;DHT22;20065;48.380;10.892;2023-05-27T13:13:04;21.90;96.90
33741;DHT22;20065;48.380;10.892;2023-05-27T13:15:50;21.80;97.40
33741;DHT22;20065;48.380;10.892;2023-05-27T13:18:36;21.90;99.00
33741;DHT22;20065;48.380;10.892;2023-05-27T13:21:22;21.90;97.70
33741;DHT22;20065;48.380;10.892;2023-05-27T13:24:09;22.00;99.80
33741;DHT22;20065;48.380;10.892;2023-05-27T13:26:55;22.00;97.50
33741;DHT22;20065;48.380;10.892;2023-05-27T13:29:43;22.10;99.10
33741;DHT22;20065;48.380;10.892;2023-05-27T13:32:29;22.10;98.40
33741;DHT22;20065;48.380;10.892;2023-05-27T13:35:15;22.10;96.60
33741;DHT22;20065;48.380;10.892;2023-05-27T13:38:02;22.20;96.80
33741;DHT22;20065;48.380;10.892;2023-05-27T13:40:49;22.20;97.70
33741;DHT22;20065;48.380;10.892;2023-05-27T13:43:36;22.20;97.30
33741;DHT22;20065;48.380;10.892;2023-05-27T13:46:22;22.20;97.40
33741;DHT22;20065;48.380;10.892;2023-05-27T13:49:08;22.20;98.70
33741;DHT22;20065;48.380;10.892;2023-05-27T13:51:54;22.20;99.10
33741;DHT22;20065;48.380;10.892;2023-05-27T13:54:40;22.20;99.20
33741;DHT22;20065;48.380;10.892;2023-05-27T13:57:27;22.20;99.90
33741;DHT22;20065;48.380;10.892;2023-05-27T14:00:14;22.30;98.60
33741;DHT22;20065;48.380;10.892;2023-05-27T14:03:01;22.30;98.50
33741;DHT22;20065;48.380;10.892;2023-05-27T14:05:47;22.30;98.30
33741;DHT22;20065;48.380;10.892;2023-05-27T14:08:35;22.30;97.70
33741;DHT22;20065;48.380;10.892;2023-05-27T14:11:22;22.30;97.00
33741;DHT22;20065;48.380;10.892;2023-05-27T14:14:08;22.30;95.40
33741;DHT22;20065;48.380;10.892;2023-05-27T14:16:54;22.30;96.90
33741;DHT22;20065;48.380;10.892;2023-05-27T14:19:41;22.30;95.60
33741;DHT22;20065;48.380;10.892;2023-05-27T14:22:28;22.30;97.10
33741;DHT22;20065;48.380;10.892;2023-05-27T14:25:14;22.30;96.40
33741;DHT22;20065;48.380;10.892;2023-05-27T14:28:00;22.30;97.90
33741;DHT22;20065;48.380;10.892;2023-05-27T14:30:49;22.30;97.40
33741;DHT22;20065;48.380;10.892;2023-05-27T14:33:36;22.30;98.80
33741;DHT22;20065;48.380;10.892;2023-05-27T14:36:22;22.30;97.00
33741;DHT22;20065;48.380;10.892;2023-05-27T14:39:08;22.40;96.30
33741;DHT22;20065;48.380;10.892;2023-05-27T14:41:54;22.40;97.20
33741;DHT22;20065;48.380;10.892;2023-05-27T14:44:41;22.40;97.70
33741;DHT22;20065;48.380;10.892;2023-05-27T14:47:28;22.40;96.00
33741;DHT22;20065;48.380;10.892;2023-05-27T14:50:14;22.40;96.30
33741;DHT22;20065;48.380;10.892;2023-05-27T14:53:00;22.40;97.00
33741;DHT22;20065;48.380;10.892;2023-05-27T14:55:47;22.40;96.30
33741;DHT22;20065;48.380;10.892;2023-05-27T14:58:34;22.40;95.60
33741;DHT22;20065;48.380;10.892;2023-05-27T15:01:27;22.40;95.00
33741;DHT22;20065;48.380;10.892;2023-05-27T15:04:13;22.40;96.40
33741;DHT22;20065;48.380;10.892;2023-05-27T15:06:59;22.40;96.10
33741;DHT22;20065;48.380;10.892;2023-05-27T15:09:46;22.30;95.20
33741;DHT22;20065;48.380;10.892;2023-05-27T15:12:46;22.30;95.90
33741;DHT22;20065;48.380;10.892;2023-05-27T15:15:32;22.30;95.20
33741;DHT22;20065;48.380;10.892;2023-05-27T15:18:19;22.30;95.90
33741;DHT22;20065;48.380;10.892;2023-05-27T15:21:06;22.30;95.50
33741;DHT22;20065;48.380;10.892;2023-05-27T15:23:52;22.30;95.70
33741;DHT22;20065;48.380;10.892;2023-05-27T15:26:39;22.20;96.60
33741;DHT22;20065;48.380;10.892;2023-05-27T15:29:25;22.20;97.40
33741;DHT22;20065;48.380;10.892;2023-05-27T15:32:11;22.20;97.10
33741;DHT22;20065;48.380;10.892;2023-05-27T15:34:58;22.10;97.00
33741;DHT22;20065;48.380;10.892;2023-05-27T15:37:44;22.10;96.10
33741;DHT22;20065;48.380;10.892;2023-05-27T15:40:31;22.10;97.00
33741;DHT22;20065;48.380;10.892;2023-05-27T15:43:17;22.00;97.20
33741;DHT22;20065;48.380;10.892;2023-05-27T15:46:04;22.10;97.20
33741;DHT22;20065;48.380;10.892;2023-05-27T15:48:50;22.20;96.90
33741;DHT22;20065;48.380;10.892;2023-05-27T15:51:36;22.10;97.10
33741;DHT22;20065;48.380;10.892;2023-05-27T15:54:23;22.00;97.70
33741;DHT22;20065;48.380;10.892;2023-05-27T15:57:12;22.00;98.80
33741;DHT22;20065;48.380;10.892;2023-05-27T15:59:58;22.00;97.80
33741;DHT22;20065;48.380;10.892;2023-05-27T16:02:48;22.00;98.10
33741;DHT22;20065;48.380;10.892;2023-05-27T16:05:38;22.00;98.90
33741;DHT22;20065;48.380;10.892;2023-05-27T16:08:24;21.90;97.70
33741;DHT22;20065;48.380;10.892;2023-05-27T16:11:11;21.90;97.30
33741;DHT22;20065;48.380;10.892;2023-05-27T16:13:57;21.90;98.30
33741;DHT22;20065;48.380;10.892;2023-05-27T16:16:43;21.90;97.80
33741;DHT22;20065;48.380;10.892;2023-05-27T16:19:29;21.80;97.60
33741;DHT22;20065;48.380;10.892;2023-05-27T16:22:15;21.80;98.30
33741;DHT22;20065;48.380;10.892;2023-05-27T16:25:02;21.80;97.80
33741;DHT22;20065;48.380;10.892;2023-05-27T16:27:48;21.80;99.30
33741;DHT22;20065;48.380;10.892;2023-05-27T16:30:34;21.70;97.90
33741;DHT22;20065;48.380;10.892;2023-05-27T16:33:20;21.70;98.00
33741;DHT22;20065;48.380;10.892;2023-05-27T16:36:07;21.70;97.10
33741;DHT22;20065;48.380;10.892;2023-05-27T16:38:53;21.60;97.50
33741;DHT22;20065;48.380;10.892;2023-05-27T16:41:39;21.60;98.30
33741;DHT22;20065;48.380;10.892;2023-05-27T16:44:25;21.50;98.40
33741;DHT22;20065;48.380;10.892;2023-05-27T16:47:11;21.50;97.50
33741;DHT22;20065;48.380;10.892;2023-05-27T16:49:57;21.50;97.60
33741;DHT22;20065;48.380;10.892;2023-05-27T16:52:44;21.50;97.50
33741;DHT22;20065;48.380;10.892;2023-05-27T16:55:30;21.50;97.30
33741;DHT22;20065;48.380;10.892;2023-05-27T16:58:19;21.50;98.60
33741;DHT22;20065;48.380;10.892;2023-05-27T17:01:05;21.50;97.90
33741;DHT22;20065;48.380;10.892;2023-05-27T17:03:51;21.40;98.20
33741;DHT22;20065;48.380;10.892;2023-05-27T17:06:39;21.40;97.40
33741;DHT22;20065;48.380;10.892;2023-05-27T17:09:25;21.40;97.90
33741;DHT22;20065;48.380;10.892;2023-05-27T17:12:11;21.40;97.50
33741;DHT22;20065;48.380;10.892;2023-05-27T17:14:57;21.30;98.20
33741;DHT22;20065;48.380;10.892;2023-05-27T17:17:43;21.30;98.10
33741;DHT22;20065;48.380;10.892;2023-05-27T17:20:29;21.30;97.50
33741;DHT22;20065;48.380;10.892;2023-05-27T17:23:16;21.20;97.00
33741;DHT22;20065;48.380;10.892;2023-05-27T17:26:02;21.20;96.80
33741;DHT22;20065;48.380;10.892;2023-05-27T17:28:48;21.20;97.90